Roscoe, Illinois
Current Conditions -  °F | °C
As of 5:45 PM on Monday 24 Nov 2014 (Local Time) from KJVL Reporting Station
Light Snow Light Snow  
Wind Chill: 14°   Ceiling: 1200
Heat Index: 27°   Visibility: 7mi
Dew Point: 23°   Wind: 16mph
Humidity: 86%   Direction: 250°WSW
Pressure: 29.58"   Gusts: 23mph
Location:  42.41°N, 89.01°W
Report Text: KJVL 242345Z 25014G20KT 7SM -SN BKN012 OVC017 M03/M05 A2958
Loading
Personal Weather Stations






























Interactive Weather Map New forecast layout! Learn more

10-Day Weather Forecast

Advertisements
Track Severe Weather on mobile